createdAt,value
2023-04-16T00:00:35.378Z,50.10
2023-04-16T00:02:59.359Z,53.33
2023-04-16T00:05:23.579Z,56.47
2023-04-16T00:07:47.264Z,52.58
2023-04-16T00:10:12.692Z,49.35
2023-04-16T00:12:36.571Z,50.13
2023-04-16T00:15:00.194Z,49.20
2023-04-16T00:17:23.947Z,51.40
2023-04-16T00:19:47.530Z,50.65
2023-04-16T00:22:11.098Z,52.15
2023-04-16T00:24:34.692Z,46.15
2023-04-16T00:26:59.814Z,49.50
2023-04-16T00:29:23.400Z,49.03
2023-04-16T00:31:47.010Z,54.53
2023-04-16T00:34:10.924Z,49.47
2023-04-16T00:36:35.218Z,51.25
2023-04-16T00:38:58.973Z,52.65
2023-04-16T00:41:23.122Z,55.42
2023-04-16T00:43:48.354Z,57.83
2023-04-16T00:46:12.029Z,47.28
2023-04-16T00:48:36.430Z,52.63
2023-04-16T00:51:01.707Z,51.83
2023-04-16T00:53:25.788Z,50.60
2023-04-16T00:55:49.939Z,50.08
2023-04-16T00:58:13.687Z,50.28
2023-04-16T01:00:39.494Z,49.88
2023-04-16T01:03:03.314Z,51.08
2023-04-16T01:05:28.117Z,44.75
2023-04-16T01:07:53.298Z,50.42
2023-04-16T01:10:16.943Z,45.97
2023-04-16T01:12:40.528Z,46.28
2023-04-16T01:15:04.360Z,45.75
2023-04-16T01:17:29.390Z,49.92
2023-04-16T01:19:53.008Z,46.22
2023-04-16T01:22:18.161Z,51.10
2023-04-16T01:24:41.800Z,48.53
2023-04-16T01:27:07.251Z,44.90
2023-04-16T01:29:30.980Z,48.05
2023-04-16T01:31:55.847Z,48.33
2023-04-16T01:34:25.564Z,44.88
2023-04-16T01:36:49.133Z,49.40
2023-04-16T01:39:15.570Z,48.75
2023-04-16T01:41:39.472Z,48.42
2023-04-16T01:44:03.083Z,48.45
2023-04-16T01:46:30.065Z,46.33
2023-04-16T01:48:54.757Z,51.80
2023-04-16T01:51:18.326Z,48.95
2023-04-16T01:53:42.034Z,49.67
2023-04-16T01:56:08.364Z,53.13
2023-04-16T01:58:33.496Z,55.38
2023-04-16T02:00:57.310Z,52.88
2023-04-16T02:03:21.598Z,52.78
2023-04-16T02:05:45.535Z,56.78
2023-04-16T02:08:09.169Z,49.67
2023-04-16T02:10:32.739Z,53.58
2023-04-16T02:12:57.770Z,58.95
2023-04-16T02:15:21.570Z,52.83
2023-04-16T02:17:46.555Z,56.10
2023-04-16T02:20:11.918Z,58.95
2023-04-16T02:22:43.884Z,49.17
2023-04-16T02:25:10.993Z,54.78
2023-04-16T02:27:34.886Z,52.40
2023-04-16T02:30:13.521Z,54.55
2023-04-16T02:32:37.480Z,55.90
2023-04-16T02:35:03.978Z,51.50
2023-04-16T02:37:27.622Z,54.70
2023-04-16T02:39:51.491Z,52.40
2023-04-16T02:42:16.255Z,56.33
2023-04-16T02:44:39.897Z,53.20
2023-04-16T02:47:05.015Z,63.08
2023-04-16T02:49:28.586Z,56.22
2023-04-16T02:51:52.245Z,49.50
2023-04-16T02:54:15.999Z,57.40
2023-04-16T02:56:39.718Z,57.45
2023-04-16T02:59:03.255Z,59.13
2023-04-16T03:01:28.557Z,53.30
2023-04-16T03:03:53.629Z,62.33
2023-04-16T03:06:17.272Z,55.03
2023-04-16T03:08:40.830Z,55.85
2023-04-16T03:11:04.476Z,50.10
2023-04-16T03:13:28.075Z,51.10
2023-04-16T03:15:51.830Z,54.35
2023-04-16T03:18:15.417Z,49.47
2023-04-16T03:20:40.556Z,50.42
2023-04-16T03:23:04.151Z,42.50
2023-04-16T03:25:27.730Z,50.83
2023-04-16T03:27:51.523Z,57.70
2023-04-16T03:30:16.442Z,47.70
2023-04-16T03:32:40.720Z,61.20
2023-04-16T03:35:04.755Z,39.15
2023-04-16T03:37:29.676Z,49.88
2023-04-16T03:39:53.610Z,49.38
2023-04-16T03:42:17.180Z,51.75
2023-04-16T03:44:40.941Z,49.70
2023-04-16T03:47:05.915Z,53.30
2023-04-16T03:49:29.549Z,53.47
2023-04-16T03:51:54.288Z,56.85
2023-04-16T03:54:20.764Z,56.53
2023-04-16T03:56:52.082Z,59.22
2023-04-16T03:59:15.790Z,55.75
2023-04-16T04:01:41.210Z,59.47
2023-04-16T04:04:05.244Z,63.97
2023-04-16T04:06:29.057Z,54.88
2023-04-16T04:08:52.691Z,49.55
2023-04-16T04:11:17.732Z,60.67
2023-04-16T04:13:41.511Z,54.03
2023-04-16T04:16:06.880Z,65.43
2023-04-16T04:18:30.557Z,60.92
2023-04-16T04:20:54.129Z,59.22
2023-04-16T04:23:21.246Z,61.72
2023-04-16T04:25:45.589Z,54.95
2023-04-16T04:28:10.889Z,63.55
2023-04-16T04:30:36.308Z,61.38
2023-04-16T04:33:00.066Z,59.92
2023-04-16T04:35:23.876Z,57.33
2023-04-16T04:37:47.843Z,64.68
2023-04-16T04:40:15.302Z,59.30
2023-04-16T04:42:39.554Z,65.90
2023-04-16T04:45:04.624Z,54.97
2023-04-16T04:47:30.137Z,51.00
2023-04-16T04:49:53.736Z,51.53
2023-04-16T04:52:17.412Z,61.78
2023-04-16T04:54:41.707Z,55.75
2023-04-16T04:57:05.714Z,53.78
2023-04-16T04:59:29.684Z,54.92
2023-04-16T05:01:54.842Z,53.63
2023-04-16T05:04:18.571Z,53.72
2023-04-16T05:06:42.179Z,54.25
2023-04-16T05:09:05.749Z,53.67
2023-04-16T05:11:29.379Z,51.53
2023-04-16T05:13:52.953Z,54.78
2023-04-16T05:16:16.565Z,57.30
2023-04-16T05:18:41.503Z,52.78
2023-04-16T05:21:05.741Z,55.75
2023-04-16T05:23:29.977Z,51.45
2023-04-16T05:25:53.564Z,50.50
2023-04-16T05:28:17.071Z,52.58
2023-04-16T05:30:40.722Z,48.90
2023-04-16T05:33:04.234Z,49.10
2023-04-16T05:35:29.270Z,45.28
2023-04-16T05:37:52.797Z,47.40
2023-04-16T05:40:16.757Z,46.25
2023-04-16T05:42:40.273Z,48.17
2023-04-16T05:45:05.356Z,51.35
2023-04-16T05:47:28.944Z,54.38
2023-04-16T05:49:52.606Z,53.60
2023-04-16T05:52:17.537Z,60.95
2023-04-16T05:54:41.153Z,47.80
2023-04-16T05:57:05.078Z,51.55
2023-04-16T05:59:29.323Z,53.50
2023-04-16T06:01:53.003Z,51.67
2023-04-16T06:04:16.721Z,49.92
2023-04-16T06:06:40.629Z,51.05
2023-04-16T06:09:05.838Z,53.33
2023-04-16T06:11:30.855Z,49.90
2023-04-16T06:13:54.548Z,50.45
2023-04-16T06:16:18.314Z,54.03
2023-04-16T06:18:42.346Z,52.42
2023-04-16T06:21:06.004Z,51.50
2023-04-16T06:23:29.724Z,47.13
2023-04-16T06:25:54.640Z,50.15
2023-04-16T06:28:18.252Z,47.22
2023-04-16T06:30:43.989Z,51.88
2023-04-16T06:33:08.282Z,46.33
2023-04-16T06:35:31.852Z,51.55
2023-04-16T06:37:55.624Z,50.47
2023-04-16T06:40:19.309Z,50.40
2023-04-16T06:42:45.508Z,51.22
2023-04-16T06:45:10.934Z,51.00
2023-04-16T06:47:34.617Z,45.28
2023-04-16T06:49:58.174Z,45.38
2023-04-16T06:52:21.855Z,43.28
2023-04-16T06:54:45.452Z,50.85
2023-04-16T06:57:09.168Z,49.28
2023-04-16T06:59:34.323Z,52.13
2023-04-16T07:01:58.593Z,44.60
2023-04-16T07:04:22.357Z,47.92
2023-04-16T07:06:46.170Z,50.65
2023-04-16T07:09:09.857Z,49.30
2023-04-16T07:11:33.695Z,48.15
2023-04-16T07:13:57.823Z,55.55
2023-04-16T07:16:22.814Z,57.47
2023-04-16T07:18:46.407Z,48.35
2023-04-16T07:21:09.996Z,54.22
2023-04-16T07:23:33.598Z,48.80
2023-04-16T07:25:57.197Z,48.20
2023-04-16T07:28:20.756Z,48.17
2023-04-16T07:30:44.657Z,48.08
2023-04-16T07:33:09.667Z,47.72
2023-04-16T07:35:33.946Z,50.33
2023-04-16T07:37:57.562Z,47.88
2023-04-16T07:40:21.555Z,47.22
2023-04-16T07:42:45.171Z,44.97
2023-04-16T07:45:10.398Z,48.83
2023-04-16T07:47:33.997Z,49.08
2023-04-16T07:49:59.335Z,49.17
2023-04-16T07:52:23.012Z,47.25
2023-04-16T07:54:47.149Z,48.60
2023-04-16T07:57:11.597Z,47.90
2023-04-16T07:59:35.241Z,48.53
2023-04-16T08:01:58.797Z,48.47
2023-04-16T08:04:25.340Z,47.17
2023-04-16T08:06:50.524Z,47.03
2023-04-16T08:09:14.127Z,45.70
2023-04-16T08:11:37.702Z,43.55
2023-04-16T08:14:01.375Z,39.28
2023-04-16T08:16:25.087Z,40.00
2023-04-16T08:18:48.777Z,42.28
2023-04-16T08:21:12.886Z,40.88
2023-04-16T08:23:37.948Z,38.42
2023-04-16T08:26:02.545Z,41.58
2023-04-16T08:28:26.298Z,33.83
2023-04-16T08:30:49.822Z,34.28
2023-04-16T08:33:14.186Z,36.13
2023-04-16T08:35:37.742Z,34.03
2023-04-16T08:38:02.469Z,31.75
2023-04-16T08:40:30.659Z,35.92
2023-04-16T08:42:56.884Z,29.70
2023-04-16T08:45:20.974Z,28.67
2023-04-16T08:47:48.562Z,31.10
2023-04-16T08:50:16.014Z,30.98
2023-04-16T08:52:46.466Z,32.28
2023-04-16T08:55:15.149Z,29.05
2023-04-16T08:57:46.199Z,36.13
2023-04-16T09:00:11.333Z,31.40
2023-04-16T09:02:35.889Z,27.50
2023-04-16T09:05:01.476Z,27.02
2023-04-16T09:07:27.207Z,30.17
2023-04-16T09:09:53.133Z,29.23
2023-04-16T09:12:16.804Z,29.88
2023-04-16T09:14:43.392Z,32.88
2023-04-16T09:17:08.363Z,30.88
2023-04-16T09:19:31.987Z,29.95
2023-04-16T09:21:55.681Z,34.20
2023-04-16T09:24:19.881Z,32.88
2023-04-16T09:26:44.560Z,38.40
2023-04-16T09:29:09.879Z,39.53
2023-04-16T09:31:35.105Z,36.72
2023-04-16T09:34:07.790Z,34.22
2023-04-16T09:36:32.534Z,35.50
2023-04-16T09:38:58.036Z,38.20
2023-04-16T09:41:27.248Z,37.03
2023-04-16T09:43:58.129Z,37.88
2023-04-16T09:46:21.848Z,35.15
2023-04-16T09:48:48.090Z,36.30
2023-04-16T09:51:11.688Z,39.70
2023-04-16T09:53:35.303Z,34.45
2023-04-16T09:55:59.242Z,35.28
2023-04-16T09:58:22.987Z,35.35
2023-04-16T10:00:46.746Z,38.55
2023-04-16T10:03:10.816Z,34.78
2023-04-16T10:05:36.637Z,30.35
2023-04-16T10:08:02.407Z,31.33
2023-04-16T10:10:26.359Z,33.47
2023-04-16T10:12:49.913Z,29.92
2023-04-16T10:15:13.536Z,32.85
2023-04-16T10:17:37.580Z,30.73
2023-04-16T10:20:03.199Z,31.20
2023-04-16T10:22:28.189Z,30.15
2023-04-16T10:24:52.633Z,27.88
2023-04-16T10:27:16.628Z,26.52
2023-04-16T10:29:40.885Z,25.88
2023-04-16T10:32:05.746Z,24.13
2023-04-16T10:34:31.271Z,27.35
2023-04-16T10:36:56.110Z,26.27
2023-04-16T10:39:23.317Z,25.13
2023-04-16T10:41:47.155Z,26.25
2023-04-16T10:44:12.411Z,27.00
2023-04-16T10:46:39.682Z,24.13
2023-04-16T10:49:15.374Z,27.40
2023-04-16T10:51:39.037Z,25.15
2023-04-16T10:54:20.621Z,25.55
2023-04-16T10:56:47.709Z,21.05
2023-04-16T10:59:12.647Z,20.02
2023-04-16T11:01:38.793Z,20.10
2023-04-16T11:04:03.742Z,20.20
2023-04-16T11:06:29.623Z,20.45
2023-04-16T11:08:55.410Z,20.38
2023-04-16T11:11:20.222Z,22.48
2023-04-16T11:13:47.257Z,21.10
2023-04-16T11:16:11.582Z,19.08
2023-04-16T11:18:35.776Z,19.02
2023-04-16T11:21:10.791Z,21.75
2023-04-16T11:23:48.830Z,19.88
2023-04-16T11:26:26.123Z,19.65
2023-04-16T11:28:51.645Z,18.38
2023-04-16T11:31:15.201Z,22.58
2023-04-16T11:33:39.917Z,20.50
2023-04-16T11:36:03.438Z,18.38
2023-04-16T11:38:36.543Z,25.15
2023-04-16T11:41:00.183Z,20.40
2023-04-16T11:43:23.710Z,19.05
2023-04-16T11:45:59.468Z,20.45
2023-04-16T11:48:23.124Z,17.75
2023-04-16T11:50:57.460Z,20.95
2023-04-16T11:53:21.306Z,17.65
2023-04-16T11:55:46.009Z,17.15
2023-04-16T11:58:15.907Z,19.42
2023-04-16T12:00:40.123Z,18.13
2023-04-16T12:03:05.401Z,18.20
2023-04-16T12:05:31.987Z,16.60
2023-04-16T12:07:55.600Z,15.23
2023-04-16T12:10:19.261Z,16.35
2023-04-16T12:12:44.080Z,16.75
2023-04-16T12:15:08.968Z,15.88
2023-04-16T12:17:33.546Z,17.42
2023-04-16T12:20:00.444Z,19.00
2023-04-16T12:22:33.622Z,17.17
2023-04-16T12:25:00.970Z,17.15
2023-04-16T12:27:28.536Z,16.40
2023-04-16T12:30:07.254Z,14.60
2023-04-16T12:32:30.856Z,16.08
2023-04-16T12:34:54.368Z,16.23
2023-04-16T12:37:19.413Z,15.98
2023-04-16T12:39:42.911Z,13.60
2023-04-16T12:42:09.872Z,14.32
2023-04-16T12:44:33.541Z,15.80
2023-04-16T12:46:57.113Z,15.80
2023-04-16T12:49:20.727Z,14.80
2023-04-16T12:51:44.626Z,14.93
2023-04-16T12:54:09.786Z,15.68
2023-04-16T12:56:34.337Z,13.23
2023-04-16T12:58:57.964Z,15.43
2023-04-16T13:01:21.964Z,16.70
2023-04-16T13:03:45.668Z,16.55
2023-04-16T13:06:10.096Z,17.63
2023-04-16T13:08:33.645Z,14.95
2023-04-16T13:10:58.607Z,14.55
2023-04-16T13:13:22.198Z,13.93
2023-04-16T13:15:45.962Z,13.77
2023-04-16T13:18:09.519Z,13.95
2023-04-16T13:20:34.462Z,16.83
2023-04-16T13:22:58.448Z,13.60
2023-04-16T13:25:22.058Z,12.30
2023-04-16T13:27:47.015Z,15.13
2023-04-16T13:30:11.746Z,13.05
2023-04-16T13:32:35.488Z,14.77
2023-04-16T13:34:59.069Z,15.98
2023-04-16T13:37:22.597Z,14.63
2023-04-16T13:39:46.536Z,15.00
2023-04-16T13:42:10.087Z,12.65
2023-04-16T13:44:35.120Z,15.38
2023-04-16T13:46:58.862Z,11.32
2023-04-16T13:49:22.724Z,12.27
2023-04-16T13:51:46.281Z,13.88
2023-04-16T13:54:09.837Z,11.38
2023-04-16T13:56:33.478Z,10.93
2023-04-16T13:58:57.115Z,11.60
2023-04-16T14:01:22.259Z,12.52
2023-04-16T14:03:46.146Z,11.02
2023-04-16T14:06:09.757Z,13.35
2023-04-16T14:08:33.743Z,13.05
2023-04-16T14:10:57.889Z,9.95
2023-04-16T14:13:22.016Z,11.98
2023-04-16T14:15:45.619Z,12.75
2023-04-16T14:18:10.727Z,12.00
2023-04-16T14:20:34.224Z,11.00
2023-04-16T14:22:57.788Z,9.43
2023-04-16T14:25:21.390Z,8.82
2023-04-16T14:27:44.982Z,11.07
2023-04-16T14:30:10.098Z,11.35
2023-04-16T14:32:33.834Z,9.52
2023-04-16T14:34:58.862Z,8.27
2023-04-16T14:37:22.468Z,10.57
2023-04-16T14:39:46.164Z,9.35
2023-04-16T14:42:09.767Z,9.70
2023-04-16T14:44:33.449Z,9.13
2023-04-16T14:46:57.048Z,9.98
2023-04-16T14:49:20.791Z,11.95
2023-04-16T14:51:47.397Z,10.48
2023-04-16T14:54:11.464Z,10.15
2023-04-16T14:56:35.764Z,9.40
2023-04-16T14:58:59.327Z,11.57
2023-04-16T15:01:23.060Z,8.95
2023-04-16T15:03:46.721Z,9.10
2023-04-16T15:06:11.477Z,11.57
2023-04-16T15:08:36.625Z,10.60
2023-04-16T15:11:00.285Z,10.43
2023-04-16T15:13:23.951Z,9.38
2023-04-16T15:15:47.609Z,9.52
2023-04-16T15:18:11.445Z,12.73
2023-04-16T15:20:35.772Z,9.13
2023-04-16T15:22:59.337Z,9.38
2023-04-16T15:25:25.534Z,7.82
2023-04-16T15:27:49.149Z,9.52
2023-04-16T15:30:13.798Z,9.30
2023-04-16T15:32:37.414Z,8.88
2023-04-16T15:35:01.040Z,9.50
2023-04-16T15:37:25.045Z,9.07
2023-04-16T15:39:48.590Z,8.93
2023-04-16T15:42:13.740Z,9.32
2023-04-16T15:44:37.365Z,9.20
2023-04-16T15:47:01.456Z,12.77
2023-04-16T15:49:25.539Z,15.05
2023-04-16T15:51:49.170Z,12.55
2023-04-16T15:54:12.778Z,19.70
2023-04-16T15:56:36.302Z,15.98
2023-04-16T15:59:01.292Z,16.17
2023-04-16T16:01:24.872Z,13.77
2023-04-16T16:03:48.733Z,11.77
2023-04-16T16:06:13.407Z,12.05
2023-04-16T16:08:38.391Z,12.35
2023-04-16T16:11:02.064Z,12.05
2023-04-16T16:13:25.907Z,12.48
2023-04-16T16:15:50.986Z,14.35
2023-04-16T16:18:14.791Z,14.55
2023-04-16T16:20:38.921Z,14.52
2023-04-16T16:23:02.695Z,16.52
2023-04-16T16:25:26.279Z,14.60
2023-04-16T16:27:50.025Z,12.93
2023-04-16T16:30:14.891Z,14.98
2023-04-16T16:32:41.071Z,13.75
2023-04-16T16:35:05.075Z,14.23
2023-04-16T16:37:29.813Z,15.68
2023-04-16T16:39:53.355Z,18.95
2023-04-16T16:42:18.929Z,15.50
2023-04-16T16:44:42.511Z,13.43
2023-04-16T16:47:06.557Z,12.75
2023-04-16T16:49:31.635Z,14.38
2023-04-16T16:51:55.192Z,13.52
2023-04-16T16:54:18.743Z,16.75
2023-04-16T16:56:42.572Z,13.05
2023-04-16T16:59:06.181Z,16.02
2023-04-16T17:01:31.262Z,15.77
2023-04-16T17:03:55.283Z,20.55
2023-04-16T17:06:22.265Z,16.52
2023-04-16T17:08:45.923Z,15.32
2023-04-16T17:11:09.689Z,17.00
2023-04-16T17:13:34.729Z,17.25
2023-04-16T17:15:58.418Z,19.55
2023-04-16T17:18:21.980Z,19.10
2023-04-16T17:20:45.595Z,19.55
2023-04-16T17:23:10.510Z,17.05
2023-04-16T17:25:34.769Z,19.42
2023-04-16T17:27:58.359Z,16.23
2023-04-16T17:30:23.724Z,14.48
2023-04-16T17:32:47.387Z,17.30
2023-04-16T17:35:12.913Z,18.75
2023-04-16T17:37:36.441Z,14.60
2023-04-16T17:40:01.457Z,15.40
2023-04-16T17:42:25.484Z,15.32
2023-04-16T17:44:49.317Z,13.75
2023-04-16T17:47:12.876Z,13.88
2023-04-16T17:49:36.509Z,13.55
2023-04-16T17:52:00.098Z,14.15
2023-04-16T17:54:23.719Z,16.98
2023-04-16T17:56:48.693Z,13.35
2023-04-16T17:59:12.322Z,17.55
2023-04-16T18:01:36.046Z,15.43
2023-04-16T18:03:59.916Z,18.67
2023-04-16T18:06:23.566Z,17.08
2023-04-16T18:08:47.303Z,17.58
2023-04-16T18:11:10.867Z,15.32
2023-04-16T18:13:35.854Z,15.05
2023-04-16T18:15:59.517Z,16.92
2023-04-16T18:18:23.105Z,17.63
2023-04-16T18:20:46.608Z,17.25
2023-04-16T18:23:10.367Z,19.05
2023-04-16T18:25:35.248Z,17.88
2023-04-16T18:27:59.440Z,14.57
2023-04-16T18:30:26.620Z,19.10
2023-04-16T18:33:16.612Z,16.73
2023-04-16T18:35:34.389Z,14.80
2023-04-16T18:37:57.889Z,14.35
2023-04-16T18:40:21.682Z,16.20
2023-04-16T18:42:45.564Z,13.13
2023-04-16T18:45:19.566Z,14.38
2023-04-16T18:47:47.529Z,11.57
2023-04-16T18:50:11.434Z,13.00
2023-04-16T18:52:35.123Z,14.18
2023-04-16T18:54:58.652Z,14.13
2023-04-16T18:57:22.308Z,12.50
2023-04-16T18:59:45.852Z,13.63
2023-04-16T19:02:10.085Z,15.30
2023-04-16T19:04:35.091Z,13.75
2023-04-16T19:06:58.710Z,14.00
2023-04-16T19:09:22.303Z,13.15
2023-04-16T19:11:45.998Z,14.55
2023-04-16T19:14:09.882Z,13.52
2023-04-16T19:16:33.714Z,13.98
2023-04-16T19:18:57.794Z,14.02
2023-04-16T19:21:22.827Z,14.45
2023-04-16T19:23:46.462Z,11.75
2023-04-16T19:26:10.112Z,13.88
2023-04-16T19:28:33.660Z,12.95
2023-04-16T19:30:57.635Z,14.13
2023-04-16T19:33:21.435Z,12.50
2023-04-16T19:35:45.065Z,13.77
2023-04-16T19:38:10.960Z,12.00
2023-04-16T19:40:34.805Z,15.10
2023-04-16T19:42:58.378Z,12.00
2023-04-16T19:45:25.755Z,14.00
2023-04-16T19:47:51.262Z,13.82
2023-04-16T19:50:14.932Z,12.23
2023-04-16T19:52:39.095Z,11.55
2023-04-16T19:55:04.461Z,12.23
2023-04-16T19:57:28.009Z,13.85
2023-04-16T19:59:52.523Z,13.77
2023-04-16T20:02:17.645Z,14.30
2023-04-16T20:04:41.266Z,15.52
2023-04-16T20:07:04.793Z,11.80
2023-04-16T20:09:28.491Z,15.43
2023-04-16T20:11:53.440Z,14.07
2023-04-16T20:14:17.283Z,15.18
2023-04-16T20:16:40.991Z,13.07
2023-04-16T20:19:05.853Z,14.38
2023-04-16T20:21:31.725Z,14.75
2023-04-16T20:23:55.931Z,14.18
2023-04-16T20:26:19.709Z,13.05
2023-04-16T20:28:44.878Z,16.67
2023-04-16T20:31:08.522Z,15.82
2023-04-16T20:33:32.347Z,14.07
2023-04-16T20:35:56.347Z,12.88
2023-04-16T20:38:23.809Z,15.32
2023-04-16T20:40:47.503Z,14.63
2023-04-16T20:43:14.248Z,15.00
2023-04-16T20:45:41.021Z,14.82
2023-04-16T20:48:05.110Z,12.57
2023-04-16T20:50:28.904Z,15.13
2023-04-16T20:52:52.866Z,13.75
2023-04-16T20:55:16.747Z,18.50
2023-04-16T20:57:40.634Z,16.00
2023-04-16T21:00:09.225Z,13.98
2023-04-16T21:02:34.464Z,19.63
2023-04-16T21:04:58.144Z,17.75
2023-04-16T21:07:21.823Z,15.57
2023-04-16T21:09:45.560Z,16.05
2023-04-16T21:12:09.520Z,18.55
2023-04-16T21:14:33.119Z,14.35
2023-04-16T21:16:56.875Z,16.35
2023-04-16T21:19:22.489Z,18.30
2023-04-16T21:21:46.202Z,14.32
2023-04-16T21:24:10.023Z,14.95
2023-04-16T21:26:33.761Z,17.73
2023-04-16T21:28:58.111Z,16.63
2023-04-16T21:31:22.103Z,16.95
2023-04-16T21:33:46.096Z,17.67
2023-04-16T21:36:14.385Z,13.20
2023-04-16T21:38:38.528Z,15.00
2023-04-16T21:41:03.343Z,18.67
2023-04-16T21:43:29.009Z,19.45
2023-04-16T21:45:54.138Z,18.15
2023-04-16T21:48:18.523Z,19.75
2023-04-16T21:50:42.372Z,21.63
2023-04-16T21:53:08.626Z,18.17
2023-04-16T21:55:32.874Z,17.38
2023-04-16T21:57:56.727Z,20.48
2023-04-16T22:00:21.315Z,18.98
2023-04-16T22:02:45.158Z,19.95
2023-04-16T22:05:10.803Z,17.77
2023-04-16T22:07:34.365Z,17.63
2023-04-16T22:09:59.961Z,18.95
2023-04-16T22:12:23.501Z,18.98
2023-04-16T22:14:59.651Z,22.10
2023-04-16T22:17:28.033Z,20.40
2023-04-16T22:19:53.475Z,22.65
2023-04-16T22:22:17.420Z,23.00
2023-04-16T22:24:41.396Z,21.25
2023-04-16T22:27:06.766Z,22.77
2023-04-16T22:29:30.669Z,22.45
2023-04-16T22:31:55.154Z,19.85
2023-04-16T22:34:19.633Z,21.60
2023-04-16T22:36:43.332Z,19.38
2023-04-16T22:39:08.717Z,21.00
2023-04-16T22:41:32.664Z,19.63
2023-04-16T22:43:58.372Z,21.58
2023-04-16T22:46:22.409Z,19.13
2023-04-16T22:48:46.276Z,20.77
2023-04-16T22:51:10.890Z,20.88
2023-04-16T22:53:34.578Z,19.60
2023-04-16T22:55:58.449Z,21.65
2023-04-16T22:58:22.307Z,21.33
2023-04-16T23:00:47.888Z,22.42
2023-04-16T23:03:11.746Z,20.73
2023-04-16T23:05:35.677Z,20.88
2023-04-16T23:07:59.192Z,20.48
2023-04-16T23:10:22.798Z,21.08
2023-04-16T23:12:46.465Z,26.13
2023-04-16T23:15:11.124Z,26.45
2023-04-16T23:17:36.117Z,22.52
2023-04-16T23:19:59.866Z,20.98
2023-04-16T23:22:23.404Z,24.08
2023-04-16T23:24:46.992Z,22.13
2023-04-16T23:27:10.722Z,22.10
2023-04-16T23:29:34.335Z,25.00
2023-04-16T23:31:58.423Z,22.95
2023-04-16T23:34:23.447Z,25.67
2023-04-16T23:36:47.154Z,23.45
2023-04-16T23:39:11.088Z,24.05
2023-04-16T23:41:34.741Z,25.30
2023-04-16T23:43:59.061Z,20.45
2023-04-16T23:46:22.752Z,24.67
2023-04-16T23:48:46.405Z,26.40
2023-04-16T23:51:11.383Z,23.42
2023-04-16T23:53:36.356Z,24.40
2023-04-16T23:55:59.889Z,21.98
2023-04-16T23:58:23.477Z,22.23
